N97 weather

Hiatt Airport
Thomasville, North Carolina, United States

Public forecast

Using degrees Fahrenheit for public forecast. Weather courtesy of forecast.io.

METAR (pilot weather report)

Closest report is Davidson County Airport, 10.0 nm (18.5 km) WSW. Retrieved 2019/07/17 22:35 UTC (0 seconds ago):

KEXX 172235Z AUTO 25004KT 10SM CLR 30/20 A2999 RMK AO2 T03010202

TAF (pilot weather forecast)

Closest forecast is Piedmont Triad International Airport, 18.1 nm (33.5 km) NNE. Retrieved 2019/07/17 18:36 UTC (4 hours ago):

TAF KGSO 171733Z 1718/1818 23013KT P6SM FEW050 BKN250 FM172100 22010G15KT P6SM VCTS BKN050CB FM180100 23008KT P6SM BKN120 FM180800 24004KT P6SM SCT250 FM181600 27005KT P6SM BKN040